Time;durP1;ratioP1;P1;durP2;ratioP2;P2;SDS_P1;SDS_P2;PMS_P1;PMS_P2;Temp;Humidity;BMP_temperature;BMP_pressure;BME280_temperature;BME280_humidity;BME280_pressure;Samples;Min_cycle;Max_cycle;Signal;HPM_P1;HPM_P2
2023/04/10 00:02:01;;;;;;;42.77;10.80;;;18.30;58.80;;;;;;5094439;28;20202;-79
2023/04/10 00:04:28;;;;;;;37.33;10.67;;;18.30;58.80;;;;;;5103382;28;20281;-79
2023/04/10 00:06:55;;;;;;;39.03;11.30;;;18.30;58.80;;;;;;5093091;28;20212;-79
2023/04/10 00:09:23;;;;;;;35.60;10.33;;;18.30;58.80;;;;;;5111559;28;20191;-79
2023/04/10 00:11:50;;;;;;;36.37;10.73;;;18.20;58.80;;;;;;5102902;28;20209;-79
2023/04/10 00:14:21;;;;;;;53.37;11.43;;;18.20;58.80;;;;;;5106597;28;20861;-78
2023/04/10 00:16:52;;;;;;;35.40;10.37;;;18.20;58.80;;;;;;5107582;28;20667;-78
2023/04/10 00:19:18;;;;;;;25.47;9.30;;;18.30;58.80;;;;;;5103254;28;20201;-78
2023/04/10 00:21:45;;;;;;;30.90;9.67;;;18.20;59.20;;;;;;5090441;28;20208;-79
2023/04/10 00:24:13;;;;;;;31.23;10.67;;;18.20;58.80;;;;;;5093689;28;20211;-79
2023/04/10 00:26:44;;;;;;;39.43;11.00;;;18.20;58.80;;;;;;5095173;28;20218;-78
2023/04/10 00:29:10;;;;;;;31.43;9.90;;;18.20;58.80;;;;;;5094566;28;20665;-79
2023/04/10 00:31:37;;;;;;;35.37;9.53;;;18.10;58.80;;;;;;5097568;28;20207;-78
2023/04/10 00:34:04;;;;;;;28.00;9.13;;;18.10;58.80;;;;;;5111017;28;20198;-79
2023/04/10 00:36:31;;;;;;;37.17;10.87;;;18.20;58.90;;;;;;5107857;28;20285;-78
2023/04/10 00:38:59;;;;;;;31.27;9.97;;;18.20;58.90;;;;;;5104785;28;20213;-80
2023/04/10 00:41:26;;;;;;;30.87;9.53;;;18.10;58.80;;;;;;5090496;28;20202;-78
2023/04/10 00:43:57;;;;;;;32.17;9.70;;;18.10;58.80;;;;;;5090055;28;20241;-77
2023/04/10 00:46:24;;;;;;;29.57;9.50;;;18.10;58.80;;;;;;5089433;28;20227;-78
2023/04/10 00:48:53;;;;;;;35.07;10.23;;;18.10;58.80;;;;;;5095368;28;20553;-78
2023/04/10 00:51:21;;;;;;;30.90;9.93;;;18.10;58.80;;;;;;5107231;28;20539;-77
2023/04/10 00:53:49;;;;;;;37.57;11.00;;;18.00;58.80;;;;;;5110835;28;20945;-78
2023/04/10 00:56:17;;;;;;;34.87;9.87;;;18.00;58.80;;;;;;5095568;28;20205;-78
2023/04/10 00:58:44;;;;;;;35.47;10.47;;;18.00;58.80;;;;;;5094257;28;20568;-78
2023/04/10 01:01:15;;;;;;;34.53;9.97;;;18.00;58.80;;;;;;5104848;28;20202;-77
2023/04/10 01:03:43;;;;;;;39.10;10.83;;;18.00;58.80;;;;;;5098906;28;20189;-78
2023/04/10 01:06:18;;;;;;;31.03;9.73;;;18.00;58.80;;;;;;5110528;28;20232;-79
2023/04/10 01:08:53;;;;;;;36.30;10.33;;;18.00;58.80;;;;;;5110240;28;20204;-77
2023/04/10 01:11:29;;;;;;;34.10;10.10;;;18.00;58.80;;;;;;5108974;28;20205;-77
2023/04/10 01:14:05;;;;;;;34.17;10.40;;;17.90;58.70;;;;;;5100767;28;20232;-79
2023/04/10 01:16:38;;;;;;;36.17;10.97;;;17.90;58.70;;;;;;5091791;28;20346;-78
2023/04/10 01:19:12;;;;;;;46.77;11.60;;;18.00;58.80;;;;;;5098399;28;20570;-81
2023/04/10 01:21:41;;;;;;;37.87;10.60;;;17.90;59.30;;;;;;5089231;28;20197;-82
2023/04/10 01:24:21;;;;;;;29.43;10.13;;;17.90;58.70;;;;;;5096337;28;20201;-82
2023/04/10 01:27:05;;;;;;;48.13;11.53;;;17.90;58.70;;;;;;5095438;28;20842;-79
2023/04/10 01:29:35;;;;;;;35.87;10.53;;;17.80;58.60;;;;;;5092142;28;20194;-80
2023/04/10 01:32:08;;;;;;;39.67;10.13;;;17.90;58.70;;;;;;5110502;28;20208;-84
2023/04/10 01:34:39;;;;;;;33.43;10.07;;;17.90;58.70;;;;;;5110153;28;20309;-79
2023/04/10 01:37:12;;;;;;;48.33;11.30;;;17.80;58.70;;;;;;5091007;28;20213;-80
2023/04/10 01:39:41;;;;;;;36.53;10.50;;;17.80;58.70;;;;;;5091274;28;20195;-78
2023/04/10 01:42:11;;;;;;;52.77;11.93;;;17.80;58.70;;;;;;5099404;28;20205;-78
2023/04/10 01:44:43;;;;;;;31.90;9.37;;;17.80;58.70;;;;;;5089014;28;20569;-81
2023/04/10 01:47:10;;;;;;;44.97;9.97;;;17.80;58.70;;;;;;5089538;28;20222;-78
2023/04/10 01:49:43;;;;;;;44.40;10.70;;;17.80;58.70;;;;;;5088376;28;20700;-78
2023/04/10 01:52:11;;;;;;;34.03;10.17;;;17.80;58.70;;;;;;5088462;28;20199;-78
2023/04/10 01:54:39;;;;;;;31.73;9.13;;;17.80;58.70;;;;;;5104062;28;20204;-78
2023/04/10 01:57:06;;;;;;;25.30;8.57;;;17.70;58.70;;;;;;5107068;28;20216;-78
2023/04/10 01:59:33;;;;;;;29.63;9.23;;;17.80;58.70;;;;;;5103736;28;20296;-78
2023/04/10 02:02:03;;;;;;;59.13;12.13;;;17.70;59.20;;;;;;5109446;28;20211;-79
2023/04/10 02:04:30;;;;;;;37.33;9.70;;;17.70;58.60;;;;;;5108498;28;20202;-78
2023/04/10 02:07:03;;;;;;;33.20;9.90;;;17.70;58.60;;;;;;5099358;28;20646;-77
2023/04/10 02:09:40;;;;;;;67.13;11.93;;;17.70;58.60;;;;;;5089475;28;20638;-77
2023/04/10 02:12:12;;;;;;;30.97;9.73;;;17.70;58.60;;;;;;5108306;28;20209;-78
2023/04/10 02:14:42;;;;;;;32.43;9.10;;;17.60;58.60;;;;;;5107068;28;20200;-78
2023/04/10 02:17:14;;;;;;;34.27;9.73;;;17.70;58.60;;;;;;5105784;28;20209;-78
2023/04/10 02:19:42;;;;;;;53.07;11.53;;;17.70;58.60;;;;;;5102449;28;20197;-79
2023/04/10 02:22:09;;;;;;;47.13;10.73;;;17.70;58.60;;;;;;5088192;28;20212;-80
2023/04/10 02:24:36;;;;;;;26.10;8.33;;;17.60;58.50;;;;;;5091716;28;20312;-79
2023/04/10 02:27:03;;;;;;;44.93;9.93;;;17.70;58.60;;;;;;5102599;28;20336;-77
2023/04/10 02:29:30;;;;;;;25.07;8.63;;;17.60;58.60;;;;;;5094737;28;20197;-85
2023/04/10 02:31:57;;;;;;;34.17;9.17;;;17.70;58.60;;;;;;5108234;28;20209;-78
2023/04/10 02:34:26;;;;;;;54.67;10.73;;;17.60;58.60;;;;;;5101294;28;20202;-80
2023/04/10 02:36:53;;;;;;;28.33;9.37;;;17.60;58.60;;;;;;5099791;28;20255;-79
2023/04/10 02:39:20;;;;;;;38.97;9.87;;;17.60;58.60;;;;;;5100302;28;20634;-85
2023/04/10 02:41:47;;;;;;;34.03;9.17;;;17.60;58.60;;;;;;5088402;28;20649;-77
2023/04/10 02:44:14;;;;;;;31.03;9.30;;;17.60;58.60;;;;;;5090682;28;20556;-80
2023/04/10 02:46:41;;;;;;;36.33;9.20;;;17.60;58.60;;;;;;5087840;28;20295;-79
2023/04/10 02:49:08;;;;;;;31.63;8.80;;;17.60;58.60;;;;;;5090103;28;20293;-82
2023/04/10 02:51:36;;;;;;;29.03;8.37;;;17.50;58.50;;;;;;5086661;28;20861;-79
2023/04/10 02:54:03;;;;;;;30.40;8.87;;;17.50;58.50;;;;;;5094704;28;20198;-83
2023/04/10 02:56:33;;;;;;;34.63;8.87;;;17.50;58.50;;;;;;5087857;28;20655;-79
2023/04/10 02:59:00;;;;;;;28.70;8.53;;;17.50;58.50;;;;;;5092217;28;20205;-80
2023/04/10 03:01:27;;;;;;;29.13;9.03;;;17.50;58.50;;;;;;5107775;28;20196;-81
2023/04/10 03:03:54;;;;;;;32.80;8.67;;;17.50;58.50;;;;;;5102481;28;20536;-78
2023/04/10 03:06:22;;;;;;;40.23;9.77;;;17.50;58.50;;;;;;5088182;28;20225;-79
2023/04/10 03:08:50;;;;;;;27.43;8.53;;;17.40;58.40;;;;;;5087824;28;20200;-80
2023/04/10 03:11:17;;;;;;;26.47;8.30;;;17.40;58.40;;;;;;5087301;28;20207;-83
2023/04/10 03:13:44;;;;;;;70.00;11.17;;;17.40;59.00;;;;;;5087511;28;20381;-78
2023/04/10 03:16:11;;;;;;;69.30;11.60;;;17.40;58.50;;;;;;5084109;28;20203;-81
2023/04/10 03:18:38;;;;;;;36.87;8.47;;;17.40;59.10;;;;;;5089745;28;20718;-78
2023/04/10 03:21:05;;;;;;;34.17;8.93;;;17.40;58.40;;;;;;5103682;28;20214;-83
2023/04/10 03:23:32;;;;;;;29.77;8.40;;;17.40;58.50;;;;;;5096322;28;20191;-83
2023/04/10 03:26:00;;;;;;;32.97;9.13;;;17.40;58.40;;;;;;5086873;28;20228;-80
2023/04/10 03:28:28;;;;;;;31.57;8.90;;;17.40;58.40;;;;;;5087198;28;20283;-79
2023/04/10 03:30:56;;;;;;;41.77;9.40;;;17.40;58.40;;;;;;5091714;28;20212;-81
2023/04/10 03:33:23;;;;;;;30.20;8.27;;;17.30;58.30;;;;;;5090216;28;20213;-77
2023/04/10 03:35:50;;;;;;;34.17;8.50;;;17.30;58.40;;;;;;5088625;28;20215;-79
2023/04/10 03:38:17;;;;;;;40.63;9.30;;;17.30;58.40;;;;;;5090692;28;20201;-84
2023/04/10 03:40:44;;;;;;;33.03;8.40;;;17.30;58.40;;;;;;5090867;28;20203;-77
2023/04/10 03:43:12;;;;;;;64.90;11.20;;;17.30;58.40;;;;;;5086507;28;20202;-77
2023/04/10 03:45:39;;;;;;;36.70;8.83;;;17.30;58.40;;;;;;5087331;28;20209;-80
2023/04/10 03:48:06;;;;;;;52.07;9.70;;;17.30;58.40;;;;;;5087010;28;20225;-83
2023/04/10 03:50:33;;;;;;;49.93;9.90;;;17.30;58.40;;;;;;5086707;28;20265;-78
2023/04/10 03:53:00;;;;;;;39.20;9.10;;;17.20;58.30;;;;;;5090784;28;20201;-78
2023/04/10 03:55:27;;;;;;;32.20;8.43;;;17.30;58.40;;;;;;5087048;28;20201;-80
2023/04/10 03:57:54;;;;;;;66.10;11.40;;;17.30;59.00;;;;;;5086620;28;20219;-83
2023/04/10 04:00:24;;;;;;;31.97;8.67;;;17.30;58.50;;;;;;5090486;28;20244;-85
2023/04/10 04:02:52;;;;;;;67.93;11.57;;;17.20;58.40;;;;;;5086025;28;20207;-84
2023/04/10 04:05:19;;;;;;;31.50;8.37;;;17.30;58.50;;;;;;5092889;28;20201;-85
2023/04/10 04:07:46;;;;;;;33.90;8.77;;;17.20;58.40;;;;;;5104517;28;20711;-81
2023/04/10 04:10:13;;;;;;;32.57;8.37;;;17.20;58.40;;;;;;5092326;28;20211;-77
2023/04/10 04:12:40;;;;;;;33.20;9.33;;;17.20;58.40;;;;;;5088087;28;20196;-79
2023/04/10 04:15:08;;;;;;;32.10;8.80;;;17.20;58.40;;;;;;5103249;28;20206;-80
2023/04/10 04:17:36;;;;;;;23.70;7.40;;;17.20;58.40;;;;;;5106309;28;20688;-81
2023/04/10 04:20:03;;;;;;;47.23;9.33;;;17.20;58.40;;;;;;5090536;28;20206;-78
2023/04/10 04:22:30;;;;;;;30.63;7.97;;;17.20;58.40;;;;;;5087390;28;20644;-85
2023/04/10 04:24:57;;;;;;;25.90;8.57;;;17.20;58.40;;;;;;5091005;28;20205;-77
2023/04/10 04:27:24;;;;;;;36.57;8.47;;;17.20;58.40;;;;;;5089309;28;20229;-78
2023/04/10 04:29:51;;;;;;;53.00;10.30;;;17.30;58.50;;;;;;5090260;28;20200;-83
2023/04/10 04:32:21;;;;;;;32.70;8.17;;;17.10;58.40;;;;;;5111464;28;20205;-78
2023/04/10 04:34:49;;;;;;;25.67;7.43;;;17.30;58.50;;;;;;5106406;28;20201;-78
2023/04/10 04:37:16;;;;;;;23.27;7.90;;;17.10;58.30;;;;;;5091387;28;20544;-77
2023/04/10 04:39:43;;;;;;;52.57;9.60;;;17.20;58.40;;;;;;5101816;28;20212;-78
2023/04/10 04:42:10;;;;;;;27.67;7.90;;;17.10;58.30;;;;;;5093475;28;20204;-77
2023/04/10 04:44:36;;;;;;;35.27;8.77;;;17.10;58.40;;;;;;5101381;28;20209;-82
2023/04/10 04:47:03;;;;;;;39.50;9.00;;;17.10;58.40;;;;;;5093230;28;20241;-81
2023/04/10 04:49:30;;;;;;;41.90;9.20;;;17.10;58.40;;;;;;5089960;28;20213;-77
2023/04/10 04:51:58;;;;;;;35.13;8.47;;;17.00;58.90;;;;;;5089690;28;20212;-77
2023/04/10 04:54:25;;;;;;;23.33;6.97;;;17.10;58.30;;;;;;5090335;28;20205;-76
2023/04/10 04:56:52;;;;;;;40.03;9.07;;;17.10;58.40;;;;;;5090044;28;20196;-77
2023/04/10 04:59:19;;;;;;;34.53;8.50;;;17.10;58.30;;;;;;5090191;28;20209;-77
2023/04/10 05:01:45;;;;;;;30.80;7.87;;;17.10;58.30;;;;;;5090344;28;20208;-77
2023/04/10 05:04:12;;;;;;;47.23;9.30;;;17.20;58.40;;;;;;5091438;28;20202;-77
2023/04/10 05:06:39;;;;;;;29.57;8.40;;;17.10;58.30;;;;;;5110829;28;20232;-76
2023/04/10 05:09:08;;;;;;;26.90;8.00;;;17.10;58.30;;;;;;5108555;28;20209;-78
2023/04/10 05:11:34;;;;;;;26.57;7.60;;;17.10;58.30;;;;;;5100458;28;20201;-77
2023/04/10 05:14:01;;;;;;;39.53;8.60;;;17.10;58.30;;;;;;5110241;28;20261;-81
2023/04/10 05:16:28;;;;;;;39.47;9.57;;;17.10;58.30;;;;;;5107343;28;20206;-78
2023/04/10 05:18:55;;;;;;;34.83;8.70;;;17.00;58.30;;;;;;5093709;28;20205;-78
2023/04/10 05:21:22;;;;;;;32.33;8.53;;;17.00;58.30;;;;;;5089514;28;20211;-78
2023/04/10 05:23:49;;;;;;;29.60;7.60;;;17.00;58.30;;;;;;5103656;28;20210;-80
2023/04/10 05:26:17;;;;;;;32.20;8.27;;;17.00;58.30;;;;;;5093973;28;20674;-79
2023/04/10 05:28:44;;;;;;;32.33;8.40;;;17.10;58.30;;;;;;5109836;28;20286;-79
2023/04/10 05:31:11;;;;;;;30.00;8.43;;;17.00;58.30;;;;;;5092860;28;20208;-79
2023/04/10 05:33:38;;;;;;;28.20;8.03;;;17.00;58.30;;;;;;5111655;28;20200;-79
2023/04/10 05:36:05;;;;;;;33.67;8.20;;;17.10;58.30;;;;;;5107437;28;20197;-78
2023/04/10 05:38:32;;;;;;;53.03;10.23;;;17.00;58.30;;;;;;5108086;28;20212;-85
2023/04/10 05:40:59;;;;;;;28.97;7.97;;;17.00;58.30;;;;;;5103084;28;20204;-80
2023/04/10 05:43:27;;;;;;;29.37;7.97;;;17.00;58.30;;;;;;5099901;28;20202;-79
2023/04/10 05:45:54;;;;;;;27.17;7.73;;;17.00;58.30;;;;;;5109171;28;20293;-81
2023/04/10 05:48:24;;;;;;;34.40;8.10;;;17.00;58.30;;;;;;5109281;28;20649;-84
2023/04/10 05:50:52;;;;;;;33.10;8.67;;;17.00;58.30;;;;;;5094553;28;20216;-81
2023/04/10 05:53:20;;;;;;;34.43;8.60;;;17.00;58.30;;;;;;5091640;28;20204;-79
2023/04/10 05:55:51;;;;;;;32.00;8.07;;;17.00;58.30;;;;;;5096759;28;20207;-84
2023/04/10 05:58:18;;;;;;;28.17;8.10;;;16.90;58.20;;;;;;5093383;28;20209;-78
2023/04/10 06:00:46;;;;;;;30.90;8.33;;;16.90;58.30;;;;;;5096883;28;20542;-86
2023/04/10 06:03:13;;;;;;;36.67;8.97;;;16.90;58.20;;;;;;5089570;28;20217;-83
2023/04/10 06:05:40;;;;;;;31.00;7.73;;;17.00;58.30;;;;;;5089232;28;20698;-79
2023/04/10 06:08:07;;;;;;;52.67;10.10;;;16.90;58.20;;;;;;5089283;28;20236;-77
2023/04/10 06:10:34;;;;;;;38.00;8.77;;;17.00;58.30;;;;;;5093901;28;20208;-81
2023/04/10 06:13:00;;;;;;;33.40;8.50;;;16.90;58.20;;;;;;5089290;28;20223;-83
2023/04/10 06:15:28;;;;;;;32.07;8.03;;;16.90;58.20;;;;;;5101905;28;20297;-84
2023/04/10 06:17:56;;;;;;;29.23;7.90;;;16.90;58.20;;;;;;5089624;28;20203;-78
2023/04/10 06:20:23;;;;;;;47.03;10.03;;;16.90;58.20;;;;;;5088551;28;20204;-77
2023/04/10 06:22:51;;;;;;;78.50;11.83;;;16.90;58.30;;;;;;5103181;28;20201;-87
2023/04/10 06:25:18;;;;;;;23.67;7.77;;;16.90;58.20;;;;;;5114352;28;20195;-80
2023/04/10 06:27:45;;;;;;;22.23;7.43;;;16.90;58.20;;;;;;5103771;28;20228;-80
2023/04/10 06:30:12;;;;;;;30.93;8.03;;;16.90;58.20;;;;;;5088561;28;20193;-80
2023/04/10 06:32:39;;;;;;;25.57;7.60;;;16.90;58.20;;;;;;5088091;28;20201;-78
2023/04/10 06:35:08;;;;;;;25.40;7.97;;;16.90;58.30;;;;;;5091189;28;20197;-77
2023/04/10 06:37:35;;;;;;;25.50;7.53;;;16.90;58.20;;;;;;5088890;28;20282;-79
2023/04/10 06:40:04;;;;;;;31.83;8.33;;;16.90;58.20;;;;;;5092858;28;20201;-80
2023/04/10 06:42:31;;;;;;;26.30;7.90;;;16.90;58.20;;;;;;5101290;28;20205;-77
2023/04/10 06:44:58;;;;;;;29.50;8.00;;;16.80;58.10;;;;;;5093611;28;20625;-83
2023/04/10 06:47:25;;;;;;;47.27;9.80;;;16.80;58.10;;;;;;5086065;28;20228;-84
2023/04/10 06:49:52;;;;;;;30.10;7.97;;;16.80;58.20;;;;;;5088761;28;20204;-85
2023/04/10 06:52:20;;;;;;;34.77;8.47;;;16.80;58.10;;;;;;5101251;28;20226;-83
2023/04/10 06:54:47;;;;;;;59.50;10.00;;;16.80;58.10;;;;;;5100199;28;20691;-80
2023/04/10 06:57:14;;;;;;;33.83;8.43;;;16.80;58.20;;;;;;5089112;28;20226;-89
2023/04/10 06:59:41;;;;;;;35.63;8.63;;;16.80;58.20;;;;;;5099219;28;20300;-82
2023/04/10 07:02:08;;;;;;;30.33;8.43;;;16.90;58.30;;;;;;5094866;28;20677;-82
2023/04/10 07:04:35;;;;;;;27.17;8.43;;;16.80;58.20;;;;;;5090818;28;20216;-82
2023/04/10 07:07:02;;;;;;;25.13;8.17;;;16.80;58.20;;;;;;5108661;28;20236;-79
2023/04/10 07:09:31;;;;;;;32.37;8.80;;;16.80;58.20;;;;;;5108903;28;20538;-79
2023/04/10 07:11:57;;;;;;;35.67;8.30;;;16.80;58.20;;;;;;5107915;28;20222;-76
2023/04/10 07:14:25;;;;;;;40.43;8.67;;;16.90;58.30;;;;;;5106087;28;20205;-78
2023/04/10 07:16:52;;;;;;;31.47;8.17;;;16.80;58.20;;;;;;5106715;28;20229;-77
2023/04/10 07:19:19;;;;;;;28.20;7.53;;;16.80;58.20;;;;;;5104393;28;20200;-77
2023/04/10 07:21:48;;;;;;;31.70;8.17;;;16.80;58.80;;;;;;5087604;28;20205;-77
2023/04/10 07:24:15;;;;;;;27.63;8.40;;;16.80;58.20;;;;;;5088261;28;20268;-79
2023/04/10 07:26:44;;;;;;;26.67;7.23;;;16.80;58.20;;;;;;5088259;28;20710;-77
2023/04/10 07:29:11;;;;;;;30.33;7.90;;;16.90;58.30;;;;;;5092972;28;20205;-77
2023/04/10 07:31:38;;;;;;;40.40;9.57;;;16.90;58.30;;;;;;5089213;28;20209;-77
2023/04/10 07:34:05;;;;;;;30.87;9.03;;;16.80;58.20;;;;;;5091244;28;20200;-78
2023/04/10 07:36:32;;;;;;;29.50;7.73;;;16.80;58.30;;;;;;5099356;28;20191;-78
2023/04/10 07:38:59;;;;;;;24.10;7.90;;;16.80;58.30;;;;;;5088364;28;20286;-78
2023/04/10 07:41:26;;;;;;;33.97;8.63;;;16.80;58.30;;;;;;5103004;28;20669;-82
2023/04/10 07:43:54;;;;;;;44.17;9.07;;;16.80;58.30;;;;;;5104225;28;20264;-78
2023/04/10 07:46:21;;;;;;;28.00;8.20;;;16.80;58.30;;;;;;5087051;28;20293;-83
2023/04/10 07:48:48;;;;;;;35.37;8.37;;;16.80;58.30;;;;;;5086807;28;20240;-78
2023/04/10 07:51:15;;;;;;;47.83;10.17;;;16.80;58.30;;;;;;5086571;28;20214;-79
2023/04/10 07:53:42;;;;;;;40.13;8.70;;;16.80;58.30;;;;;;5088301;28;20206;-78
2023/04/10 07:56:16;;;;;;;42.40;9.37;;;16.80;58.30;;;;;;5092979;28;20209;-80
2023/04/10 07:58:42;;;;;;;32.80;8.50;;;16.80;58.30;;;;;;5093179;28;20209;-78
2023/04/10 08:01:11;;;;;;;33.30;8.10;;;16.90;58.40;;;;;;5099015;28;20206;-78
2023/04/10 08:03:39;;;;;;;55.10;10.63;;;16.90;58.40;;;;;;5101408;28;20228;-78
2023/04/10 08:06:08;;;;;;;30.83;8.30;;;16.80;58.30;;;;;;5096879;28;20218;-80
2023/04/10 08:08:36;;;;;;;49.17;9.63;;;16.80;58.30;;;;;;5090948;28;20320;-81
2023/04/10 08:11:03;;;;;;;28.83;8.47;;;16.80;58.30;;;;;;5094836;28;20200;-78
2023/04/10 08:13:30;;;;;;;47.20;9.50;;;16.90;58.40;;;;;;5096834;28;20576;-78
2023/04/10 08:15:57;;;;;;;21.93;7.10;;;16.80;58.30;;;;;;5097438;28;20312;-78
2023/04/10 08:18:25;;;;;;;50.23;10.00;;;16.80;58.30;;;;;;5090723;28;20203;-79
2023/04/10 08:20:52;;;;;;;36.13;8.87;;;16.90;58.40;;;;;;5092427;28;20213;-82
2023/04/10 08:23:19;;;;;;;52.10;9.83;;;16.90;58.40;;;;;;5091926;28;20661;-78
2023/04/10 08:25:46;;;;;;;30.80;7.63;;;16.90;58.40;;;;;;5091424;28;20225;-78
2023/04/10 08:28:13;;;;;;;48.30;9.87;;;16.80;58.30;;;;;;5105809;28;20715;-84
2023/04/10 08:30:39;;;;;;;45.07;9.70;;;16.90;58.40;;;;;;5102874;28;20217;-78
2023/04/10 08:33:06;;;;;;;27.80;8.53;;;16.90;58.40;;;;;;5091243;28;20197;-80
2023/04/10 08:35:35;;;;;;;64.63;11.43;;;16.80;58.30;;;;;;5104047;28;20212;-79
2023/04/10 08:38:01;;;;;;;31.37;8.57;;;16.90;58.40;;;;;;5090552;28;20213;-78
2023/04/10 08:40:28;;;;;;;24.90;7.77;;;16.90;58.40;;;;;;5090342;28;20209;-79
2023/04/10 08:42:55;;;;;;;34.03;8.80;;;16.90;58.40;;;;;;5090995;28;20202;-78
2023/04/10 08:45:22;;;;;;;23.13;7.47;;;16.90;58.40;;;;;;5090965;28;20216;-88
2023/04/10 08:47:52;;;;;;;73.03;12.17;;;16.90;58.40;;;;;;5094328;28;20230;-83
2023/04/10 08:50:19;;;;;;;40.00;9.53;;;16.90;58.40;;;;;;5095520;28;20196;-84
2023/04/10 08:52:51;;;;;;;33.30;8.73;;;16.90;58.40;;;;;;5098556;28;20206;-83
2023/04/10 08:55:19;;;;;;;24.57;8.37;;;17.00;58.50;;;;;;5093523;28;20209;-83
2023/04/10 08:57:47;;;;;;;30.93;8.40;;;17.00;58.50;;;;;;5111550;28;20182;-78
2023/04/10 09:00:15;;;;;;;35.40;8.37;;;17.00;58.50;;;;;;5097680;28;20201;-77
2023/04/10 09:02:42;;;;;;;31.77;7.90;;;17.00;58.50;;;;;;5109011;28;20740;-77
2023/04/10 09:05:11;;;;;;;31.33;8.50;;;17.00;58.50;;;;;;5104420;28;20202;-77
2023/04/10 09:07:39;;;;;;;25.03;8.40;;;17.00;58.50;;;;;;5092353;28;21091;-77
2023/04/10 09:10:08;;;;;;;33.10;8.40;;;17.10;58.60;;;;;;5101398;28;20670;-83
2023/04/10 09:12:45;;;;;;;40.30;9.23;;;17.00;58.50;;;;;;5105380;27;20197;-78
2023/04/10 09:15:12;;;;;;;27.03;7.57;;;17.00;58.50;;;;;;5111210;28;20201;-78
2023/04/10 09:17:55;;;;;;;19.80;7.33;;;17.00;58.50;;;;;;5111365;28;20668;-78
2023/04/10 09:20:25;;;;;;;30.13;8.63;;;17.00;58.50;;;;;;5090053;28;20292;-77
2023/04/10 09:22:52;;;;;;;31.57;8.50;;;17.10;58.60;;;;;;5089980;28;20717;-78
2023/04/10 09:25:32;;;;;;;24.20;7.87;;;17.10;58.60;;;;;;5089921;28;20216;-78
2023/04/10 09:28:05;;;;;;;30.53;8.13;;;17.10;58.60;;;;;;5090124;28;20232;-78
2023/04/10 09:30:36;;;;;;;36.00;9.40;;;17.10;58.60;;;;;;5091800;28;20221;-81
2023/04/10 09:33:03;;;;;;;77.90;12.60;;;17.10;58.50;;;;;;5087650;28;20324;-80
2023/04/10 09:35:38;;;;;;;26.90;8.13;;;17.10;58.60;;;;;;5097091;28;20232;-82
2023/04/10 09:38:16;;;;;;;35.43;9.10;;;17.10;58.50;;;;;;5110133;28;20189;-84
2023/04/10 09:40:46;;;;;;;32.13;8.83;;;17.10;58.50;;;;;;5110356;28;20209;-79
2023/04/10 09:43:20;;;;;;;40.40;9.20;;;17.20;58.60;;;;;;5101422;28;20292;-83
2023/04/10 09:45:51;;;;;;;27.50;8.27;;;17.20;58.70;;;;;;5088448;28;20221;-78
2023/04/10 09:48:18;;;;;;;36.13;8.33;;;17.20;58.60;;;;;;5092401;28;20229;-77
2023/04/10 09:50:45;;;;;;;31.97;8.70;;;17.20;58.60;;;;;;5089309;28;20198;-78
2023/04/10 09:53:14;;;;;;;36.90;8.63;;;17.30;58.70;;;;;;5091117;28;20213;-79
2023/04/10 09:55:42;;;;;;;31.87;8.20;;;17.20;58.70;;;;;;5089777;28;20197;-77
2023/04/10 09:58:11;;;;;;;28.73;7.83;;;17.20;58.60;;;;;;5089757;28;20206;-78
2023/04/10 10:00:41;;;;;;;35.90;8.63;;;17.30;59.30;;;;;;5091896;28;20287;-78
2023/04/10 10:03:10;;;;;;;32.23;8.73;;;17.30;58.80;;;;;;5100591;28;20699;-79
2023/04/10 10:05:41;;;;;;;29.03;7.60;;;17.30;58.80;;;;;;5109242;28;20192;-77
2023/04/10 10:08:10;;;;;;;31.97;7.93;;;17.30;58.80;;;;;;5095234;28;20213;-78
2023/04/10 10:10:40;;;;;;;36.93;8.83;;;17.30;58.80;;;;;;5094996;28;20572;-78
2023/04/10 10:13:10;;;;;;;36.87;8.37;;;17.30;58.80;;;;;;5089089;28;20210;-81
2023/04/10 10:15:46;;;;;;;41.33;8.70;;;17.40;58.80;;;;;;5104370;28;20230;-78
2023/04/10 10:18:20;;;;;;;27.60;7.13;;;17.40;58.90;;;;;;5092312;28;20659;-78
2023/04/10 10:20:48;;;;;;;29.87;7.77;;;17.40;58.80;;;;;;5109122;27;20207;-77
2023/04/10 10:23:17;;;;;;;26.13;7.87;;;17.50;58.90;;;;;;5095075;28;20203;-77
2023/04/10 10:25:45;;;;;;;38.40;8.97;;;17.50;58.90;;;;;;5089646;28;20581;-78
2023/04/10 10:28:14;;;;;;;50.60;9.50;;;17.50;58.90;;;;;;5092961;28;20231;-77
2023/04/10 10:30:42;;;;;;;34.67;8.40;;;17.50;58.90;;;;;;5096594;28;20723;-77
2023/04/10 10:33:10;;;;;;;44.30;9.37;;;17.50;58.90;;;;;;5087848;28;20880;-79
2023/04/10 10:35:37;;;;;;;31.83;8.37;;;17.50;58.90;;;;;;5104101;28;20213;-77
2023/04/10 10:38:08;;;;;;;30.30;7.97;;;17.50;58.90;;;;;;5092929;28;20212;-78
2023/04/10 10:40:46;;;;;;;29.00;7.53;;;17.60;58.90;;;;;;5098528;28;20201;-78
2023/04/10 10:43:18;;;;;;;43.67;8.90;;;17.60;58.90;;;;;;5101371;28;20228;-78
2023/04/10 10:46:02;;;;;;;37.63;8.50;;;17.50;58.90;;;;;;5087286;28;20668;-80
2023/04/10 10:48:29;;;;;;;20.33;6.77;;;17.60;58.90;;;;;;5087439;28;20233;-77
2023/04/10 10:50:58;;;;;;;31.30;7.93;;;17.60;58.90;;;;;;5098764;28;20214;-77
2023/04/10 10:53:40;;;;;;;26.03;7.77;;;17.70;59.00;;;;;;5100100;28;20251;-79
2023/04/10 10:56:37;;;;;;;27.13;7.83;;;17.80;59.10;;;;;;5088588;28;20201;-78
2023/04/10 10:59:05;;;;;;;27.63;7.67;;;17.60;58.90;;;;;;5094851;28;20197;-78
2023/04/10 11:01:32;;;;;;;26.73;7.93;;;17.70;59.00;;;;;;5087809;28;20205;-80
2023/04/10 11:04:00;;;;;;;29.53;8.10;;;17.70;59.00;;;;;;5087837;28;20211;-77
2023/04/10 11:06:49;;;;;;;34.07;8.47;;;17.70;59.00;;;;;;5102611;28;20663;-77
2023/04/10 11:09:47;;;;;;;29.80;8.60;;;17.70;59.00;;;;;;5090460;28;20236;-77
2023/04/10 11:12:15;;;;;;;42.40;9.03;;;17.70;59.00;;;;;;5089490;28;20205;-79
2023/04/10 11:14:44;;;;;;;65.97;11.10;;;17.70;58.90;;;;;;5100992;28;20216;-77
2023/04/10 11:17:11;;;;;;;37.07;8.73;;;17.70;58.90;;;;;;5099548;28;20587;-77
2023/04/10 11:20:02;;;;;;;23.57;8.07;;;17.70;59.00;;;;;;5089292;28;20199;-79
2023/04/10 11:22:29;;;;;;;28.33;7.80;;;17.70;59.00;;;;;;5076311;28;20200;-78
2023/04/10 11:25:01;;;;;;;35.00;8.37;;;17.70;58.90;;;;;;5086907;28;20216;-79
2023/04/10 11:27:47;;;;;;;61.87;10.97;;;17.70;58.90;;;;;;5086189;28;20256;-77
2023/04/10 11:30:35;;;;;;;56.20;10.20;;;17.80;59.00;;;;;;5093983;28;20659;-79
2023/04/10 11:33:04;;;;;;;36.40;8.43;;;17.80;58.90;;;;;;5106877;28;20209;-79
2023/04/10 11:35:31;;;;;;;26.60;7.77;;;17.80;58.90;;;;;;5097480;28;20233;-77
2023/04/10 11:38:13;;;;;;;29.93;7.87;;;17.80;58.90;;;;;;5091395;28;20206;-77
2023/04/10 11:41:01;;;;;;;27.03;7.63;;;17.80;58.90;;;;;;5091841;28;20211;-78
2023/04/10 11:43:28;;;;;;;34.00;7.77;;;17.80;58.90;;;;;;5097887;28;20578;-77
2023/04/10 11:46:06;;;;;;;44.10;8.77;;;17.80;58.90;;;;;;5091251;28;20665;-78
2023/04/10 11:48:33;;;;;;;39.53;8.07;;;17.80;58.90;;;;;;5090376;28;20218;-77
2023/04/10 11:51:07;;;;;;;28.17;8.13;;;17.80;58.90;;;;;;5094496;28;20203;-77
2023/04/10 11:53:34;;;;;;;34.33;8.57;;;17.80;58.90;;;;;;5094665;28;20195;-78
2023/04/10 11:56:01;;;;;;;24.57;7.73;;;17.80;58.90;;;;;;5094912;28;20230;-77
2023/04/10 11:58:30;;;;;;;31.07;8.20;;;17.80;58.90;;;;;;5090841;28;20202;-78
2023/04/10 12:01:01;;;;;;;30.37;8.00;;;17.80;58.90;;;;;;5090425;28;20243;-78
2023/04/10 12:03:38;;;;;;;41.63;8.87;;;17.80;58.90;;;;;;5096207;28;20220;-78
2023/04/10 12:06:08;;;;;;;35.93;8.93;;;17.80;58.90;;;;;;5098786;28;20824;-77
2023/04/10 12:08:36;;;;;;;32.83;8.20;;;17.80;58.90;;;;;;5101057;28;20220;-78
2023/04/10 12:11:03;;;;;;;54.27;10.73;;;17.80;58.90;;;;;;5092534;28;20198;-77
2023/04/10 12:13:30;;;;;;;64.07;10.43;;;17.80;58.90;;;;;;5097132;28;20202;-79
2023/04/10 12:16:02;;;;;;;38.57;8.23;;;17.80;58.90;;;;;;5110209;28;20208;-78
2023/04/10 12:18:29;;;;;;;64.43;10.90;;;17.80;58.90;;;;;;5101169;28;20201;-77
2023/04/10 12:21:00;;;;;;;33.13;8.23;;;17.80;58.90;;;;;;5098231;28;20197;-78
2023/04/10 12:23:28;;;;;;;38.93;9.37;;;17.80;58.90;;;;;;5111080;28;20203;-80
2023/04/10 12:26:10;;;;;;;24.77;7.67;;;17.80;58.90;;;;;;5102719;28;20225;-85
2023/04/10 12:28:40;;;;;;;42.40;8.80;;;17.80;58.90;;;;;;5091571;28;20243;-83
2023/04/10 12:31:08;;;;;;;39.43;9.00;;;17.80;58.90;;;;;;5092772;28;20288;-87
2023/04/10 12:33:35;;;;;;;51.80;10.03;;;17.80;58.90;;;;;;5094785;28;20206;-86
2023/04/10 12:36:04;;;;;;;47.37;9.80;;;17.80;58.90;;;;;;5096537;28;20204;-83
2023/04/10 12:38:41;;;;;;;45.53;9.50;;;17.80;59.00;;;;;;5105795;28;20199;-78
2023/04/10 12:41:10;;;;;;;45.57;9.67;;;17.80;59.00;;;;;;5101826;28;20289;-79
2023/04/10 12:43:39;;;;;;;31.80;8.57;;;17.80;59.00;;;;;;5101620;28;20522;-87
2023/04/10 12:46:08;;;;;;;23.90;7.63;;;17.60;58.90;;;;;;5100702;28;20293;-80